Time;durP1;ratioP1;P1;durP2;ratioP2;P2;SDS_P1;SDS_P2;PMS_P1;PMS_P2;Temp;Humidity;BMP_temperature;BMP_pressure;BME280_temperature;BME280_humidity;BME280_pressure;Samples;Min_cycle;Max_cycle;Signal;HPM_P1;HPM_P2
2022/09/04 00:03:59;;;;;;;4.72;3.45;;;;;;;12.94;100.00;96676.25;10412573;28;20203;-71
2022/09/04 00:09:07;;;;;;;5.75;3.40;;;;;;;13.13;100.00;96670.56;10394064;28;20263;-71
2022/09/04 00:14:17;;;;;;;5.32;3.72;;;;;;;12.96;100.00;96669.84;10392715;28;20276;-72
2022/09/04 00:19:29;;;;;;;5.30;3.70;;;;;;;12.92;100.00;96662.47;10411021;28;20272;-71
2022/09/04 00:24:41;;;;;;;6.22;3.90;;;;;;;12.80;100.00;96662.88;10392773;28;20190;-72
2022/09/04 00:29:43;;;;;;;4.65;3.50;;;;;;;12.93;100.00;96662.28;10410950;28;20224;-72
2022/09/04 00:34:47;;;;;;;7.53;3.58;;;;;;;12.87;100.00;96660.34;10392337;28;20759;-72
2022/09/04 00:40:02;;;;;;;4.80;3.25;;;;;;;12.82;100.00;96675.84;10410189;28;20189;-72
2022/09/04 00:45:50;;;;;;;4.55;3.42;;;;;;;12.84;100.00;96676.47;10392027;28;20276;-72
2022/09/04 00:51:01;;;;;;;4.78;3.80;;;;;;;13.02;100.00;96679.66;10405998;28;20243;-71
2022/09/04 00:56:30;;;;;;;3.88;3.50;;;;;;;13.04;100.00;96679.50;10408809;28;20235;-72
2022/09/04 01:01:30;;;;;;;10.45;4.45;;;;;;;12.73;100.00;96680.31;10407556;28;20193;-71
2022/09/04 01:06:41;;;;;;;8.15;4.20;;;;;;;12.74;100.00;96681.94;10408723;28;20200;-71
2022/09/04 01:12:08;;;;;;;5.40;3.35;;;;;;;12.96;100.00;96693.50;10408693;28;20236;-71
2022/09/04 01:17:17;;;;;;;4.35;3.45;;;;;;;12.82;100.00;96705.56;10409176;28;20192;-72
2022/09/04 01:22:32;;;;;;;7.50;2.95;;;;;;;12.73;100.00;96696.06;10408715;28;20195;-72
2022/09/04 01:28:00;;;;;;;4.30;3.30;;;;;;;12.68;100.00;96708.91;10408535;28;20219;-72
2022/09/04 01:33:04;;;;;;;4.20;3.80;;;;;;;12.73;100.00;96711.84;10408169;28;20279;-72
2022/09/04 01:38:17;;;;;;;5.90;3.78;;;;;;;12.91;100.00;96708.16;10390955;28;20216;-72
2022/09/04 01:43:21;;;;;;;5.03;3.60;;;;;;;12.67;100.00;96704.63;10390757;28;20212;-71
2022/09/04 01:48:34;;;;;;;5.88;3.28;;;;;;;13.02;100.00;96713.84;10407810;28;20219;-71
2022/09/04 01:53:36;;;;;;;6.45;3.45;;;;;;;13.05;100.00;96709.22;10390369;28;20276;-71
2022/09/04 01:58:48;;;;;;;5.75;3.53;;;;;;;12.72;100.00;96712.00;10389628;28;20656;-71
2022/09/04 02:03:57;;;;;;;4.25;3.80;;;;;;;12.52;100.00;96716.84;10407756;28;20189;-72
2022/09/04 02:09:28;;;;;;;5.70;4.00;;;;;;;12.79;100.00;96720.88;10390507;28;20220;-71
2022/09/04 02:14:39;;;;;;;5.53;4.00;;;;;;;12.88;100.00;96708.50;10392308;28;20200;-71
2022/09/04 02:19:58;;;;;;;5.35;3.78;;;;;;;12.61;100.00;96708.75;10398127;28;20212;-71
2022/09/04 02:25:25;;;;;;;4.13;3.15;;;;;;;12.90;100.00;96715.22;10415218;28;20188;-71
2022/09/04 02:30:32;;;;;;;8.45;3.47;;;;;;;13.18;100.00;96705.06;10415487;28;20707;-71
2022/09/04 02:35:47;;;;;;;5.55;3.55;;;;;;;13.22;100.00;96707.34;10397391;28;20693;-71
2022/09/04 02:40:59;;;;;;;5.93;3.50;;;;;;;13.20;100.00;96702.28;10397148;28;20196;-71
2022/09/04 02:46:22;;;;;;;7.68;3.67;;;;;;;12.97;100.00;96713.56;10380594;28;20197;-71
2022/09/04 02:51:48;;;;;;;4.82;3.22;;;;;;;12.93;100.00;96724.59;10396990;28;20274;-71
2022/09/04 02:57:35;;;;;;;5.75;3.40;;;;;;;12.89;100.00;96731.97;10395703;28;20704;-71
2022/09/04 03:02:52;;;;;;;7.65;3.65;;;;;;;12.91;100.00;96732.66;10392480;28;20204;-71
2022/09/04 03:08:13;;;;;;;5.97;3.42;;;;;;;12.93;100.00;96743.00;10390570;28;20259;-71
2022/09/04 03:13:22;;;;;;;4.88;3.45;;;;;;;12.88;100.00;96745.28;10387408;28;20204;-72
2022/09/04 03:18:29;;;;;;;4.78;3.78;;;;;;;13.02;100.00;96744.59;10388205;28;20211;-71
2022/09/04 03:23:45;;;;;;;8.32;3.90;;;;;;;12.88;100.00;96738.25;10388805;28;20660;-71
2022/09/04 03:29:07;;;;;;;7.03;3.58;;;;;;;12.79;100.00;96737.44;10388105;28;20235;-71
2022/09/04 03:34:30;;;;;;;7.47;4.18;;;;;;;12.46;100.00;96737.53;10405298;28;20291;-71
2022/09/04 03:39:47;;;;;;;4.78;3.60;;;;;;;12.42;100.00;96748.53;10404990;28;20189;-72
2022/09/04 03:45:12;;;;;;;3.75;3.28;;;;;;;12.48;100.00;96745.25;10404765;28;20235;-72
2022/09/04 03:50:24;;;;;;;4.22;3.53;;;;;;;12.18;100.00;96749.41;10406034;28;20227;-72
2022/09/04 03:56:00;;;;;;;5.95;3.97;;;;;;;11.86;100.00;96749.22;10385877;28;20204;-73
2022/09/04 04:01:16;;;;;;;7.35;4.00;;;;;;;11.59;100.00;96756.41;10385203;28;20217;-72
2022/09/04 04:06:22;;;;;;;8.00;4.43;;;;;;;11.42;100.00;96768.69;10393277;28;20339;-72
2022/09/04 04:11:49;;;;;;;5.13;4.60;;;;;;;11.31;100.00;96776.84;10393685;28;20239;-72
2022/09/04 04:16:59;;;;;;;5.18;4.05;;;;;;;11.34;100.00;96786.19;10393387;28;20675;-72
2022/09/04 04:22:12;;;;;;;8.63;4.07;;;;;;;11.26;100.00;96794.03;10392870;28;20279;-71
2022/09/04 04:27:46;;;;;;;5.22;4.68;;;;;;;10.92;100.00;96789.63;10410338;28;20221;-72
2022/09/04 04:33:03;;;;;;;8.57;4.75;;;;;;;10.82;100.00;96815.97;10392414;28;20243;-72
2022/09/04 04:38:21;;;;;;;7.33;4.60;;;;;;;10.89;100.00;96811.75;10391912;28;20209;-72
2022/09/04 04:43:44;;;;;;;5.87;4.73;;;;;;;10.89;100.00;96819.59;10392033;28;20220;-72
2022/09/04 04:49:24;;;;;;;5.87;5.27;;;;;;;10.80;100.00;96828.41;10392200;28;20218;-72
2022/09/04 04:54:39;;;;;;;10.05;5.13;;;;;;;10.79;100.00;96843.28;10409199;28;20200;-72
2022/09/04 05:00:05;;;;;;;6.30;4.63;;;;;;;10.99;100.00;96846.50;10356025;28;20735;-72
2022/09/04 05:05:14;;;;;;;6.40;4.83;;;;;;;11.18;100.00;96839.38;10368451;28;20306;-72
2022/09/04 05:10:23;;;;;;;5.63;4.70;;;;;;;11.20;100.00;96853.19;10351189;28;20231;-72
2022/09/04 05:15:42;;;;;;;6.90;4.47;;;;;;;11.24;100.00;96844.03;10367749;28;20534;-72
2022/09/04 05:20:54;;;;;;;4.55;4.15;;;;;;;11.27;100.00;96848.13;10367947;28;20196;-71
2022/09/04 05:26:09;;;;;;;5.15;4.30;;;;;;;11.33;100.00;96844.88;10367727;28;20204;-72
2022/09/04 05:31:19;;;;;;;7.95;3.83;;;;;;;11.66;100.00;96835.31;10350156;28;20686;-72
2022/09/04 05:36:54;;;;;;;4.72;3.75;;;;;;;12.25;100.00;96835.25;10349385;28;20347;-71
2022/09/04 05:42:00;;;;;;;6.93;3.88;;;;;;;12.59;100.00;96831.63;10367353;28;20712;-72
2022/09/04 05:47:21;;;;;;;4.63;3.92;;;;;;;12.98;100.00;96830.88;10367432;28;20737;-72
2022/09/04 05:52:31;;;;;;;3.90;3.50;;;;;;;12.94;100.00;96834.84;10374779;28;20279;-72
2022/09/04 05:57:40;;;;;;;7.63;3.53;;;;;;;13.37;100.00;96835.41;10393507;28;20228;-71
2022/09/04 06:02:52;;;;;;;4.63;3.00;;;;;;;13.85;100.00;96842.41;10415962;28;20663;-71
2022/09/04 06:08:08;;;;;;;6.20;2.97;;;;;;;14.31;100.00;96837.13;10398315;28;20243;-71
2022/09/04 06:13:30;;;;;;;3.53;2.92;;;;;;;15.00;100.00;96851.22;10397884;28;20185;-71
2022/09/04 06:18:50;;;;;;;3.80;2.97;;;;;;;14.88;100.00;96849.00;10397859;28;20189;-71
2022/09/04 06:24:06;;;;;;;6.20;3.20;;;;;;;14.83;100.00;96861.13;10415551;28;20279;-71
2022/09/04 06:29:44;;;;;;;4.10;3.22;;;;;;;16.18;100.00;96847.56;10415532;28;20235;-71
2022/09/04 06:35:09;;;;;;;5.90;3.20;;;;;;;16.40;100.00;96848.41;10396742;28;20244;-71
2022/09/04 06:40:35;;;;;;;6.93;2.95;;;;;;;16.76;96.08;96841.38;10396998;28;20323;-71
2022/09/04 06:45:52;;;;;;;3.97;3.08;;;;;;;18.33;87.36;96815.97;10396739;28;20188;-71
2022/09/04 06:51:07;;;;;;;4.15;2.60;;;;;;;17.91;86.39;96825.09;10397206;28;20247;-71
2022/09/04 06:56:19;;;;;;;6.03;2.50;;;;;;;17.00;92.41;96863.97;10395736;28;20240;-71
2022/09/04 07:01:35;;;;;;;3.83;2.47;;;;;;;17.12;93.64;96877.50;10413489;28;20195;-71
2022/09/04 07:06:48;;;;;;;4.20;3.17;;;;;;;16.98;95.24;96896.91;10396766;28;20200;-71
2022/09/04 07:11:59;;;;;;;4.93;2.70;;;;;;;17.15;94.63;96894.78;10413981;28;20564;-71
2022/09/04 07:17:27;;;;;;;4.35;2.60;;;;;;;17.28;94.38;96894.88;10413349;28;20247;-71
2022/09/04 07:23:01;;;;;;;3.25;2.70;;;;;;;17.31;94.76;96906.94;10395626;28;20213;-71
2022/09/04 07:28:11;;;;;;;5.32;3.03;;;;;;;17.54;94.93;96911.94;10412624;28;20220;-71
2022/09/04 07:33:35;;;;;;;7.53;2.80;;;;;;;18.31;92.12;96907.38;10412437;28;20208;-71
2022/09/04 07:39:19;;;;;;;5.05;2.60;;;;;;;18.51;88.97;96892.31;10394787;28;20307;-71
2022/09/04 07:44:32;;;;;;;3.00;2.70;;;;;;;18.58;86.13;96872.94;10318598;28;20680;-71
2022/09/04 07:49:51;;;;;;;3.47;2.60;;;;;;;19.05;87.04;96897.63;10412321;28;20220;-71
2022/09/04 07:55:21;;;;;;;3.42;2.78;;;;;;;19.23;80.10;96862.47;10410959;28;20561;-71
2022/09/04 08:00:22;;;;;;;3.67;2.67;;;;;;;19.44;80.80;96877.34;10394524;28;20243;-71
2022/09/04 08:05:41;;;;;;;4.32;3.00;;;;;;;20.09;76.05;96842.75;10410577;28;20197;-71
2022/09/04 08:11:16;;;;;;;8.50;3.10;;;;;;;20.44;75.57;96862.78;10410989;28;20235;-72
2022/09/04 08:16:26;;;;;;;3.47;2.90;;;;;;;20.66;74.31;96871.25;10379833;28;20208;-72
2022/09/04 08:21:29;;;;;;;5.18;2.78;;;;;;;21.47;70.95;96839.31;10410864;28;20331;-72
2022/09/04 08:26:32;;;;;;;4.15;3.10;;;;;;;21.73;70.30;96854.25;10392383;28;20211;-72
2022/09/04 08:31:41;;;;;;;9.07;2.60;;;;;;;23.25;64.94;96816.63;10410422;28;20220;-71
2022/09/04 08:37:06;;;;;;;3.75;2.65;;;;;;;24.26;60.02;96767.97;10409308;28;20216;-72
2022/09/04 08:42:16;;;;;;;3.40;2.55;;;;;;;24.38;56.00;96722.38;10409692;28;20657;-72
2022/09/04 08:47:35;;;;;;;3.45;2.75;;;;;;;24.06;58.29;96776.47;10391981;28;20247;-71
2022/09/04 08:52:54;;;;;;;4.20;3.00;;;;;;;23.22;60.59;96806.38;10391721;28;20192;-72
2022/09/04 08:57:54;;;;;;;4.28;2.70;;;;;;;22.31;65.57;96879.53;10408832;28;20232;-72
2022/09/04 09:03:14;;;;;;;4.78;2.90;;;;;;;23.07;60.34;96796.94;10409324;28;20188;-71
2022/09/04 09:08:43;;;;;;;3.40;2.25;;;;;;;24.44;59.17;96814.28;10391682;28;20593;-71
2022/09/04 09:14:08;;;;;;;3.03;2.70;;;;;;;25.03;58.00;96801.28;10408378;28;20207;-72
2022/09/04 09:19:21;;;;;;;6.93;2.70;;;;;;;25.14;57.33;96794.19;10409451;28;20201;-72
2022/09/04 09:24:56;;;;;;;5.57;2.85;;;;;;;26.34;55.39;96790.72;10390485;28;20196;-72
2022/09/04 09:30:14;;;;;;;7.90;2.85;;;;;;;26.14;56.49;96798.59;10406590;28;20248;-72
2022/09/04 09:35:54;;;;;;;5.05;3.40;;;;;;;26.17;53.91;96744.38;10390204;28;20226;-72
2022/09/04 09:41:16;;;;;;;5.25;2.75;;;;;;;27.78;52.26;96769.25;10391346;28;20287;-72
2022/09/04 09:46:53;;;;;;;3.10;2.70;;;;;;;28.87;49.15;96745.81;10408016;28;20192;-72
2022/09/04 09:52:17;;;;;;;3.75;3.00;;;;;;;27.51;50.99;96747.91;10407400;28;20200;-72
2022/09/04 09:57:45;;;;;;;3.20;2.50;;;;;;;28.72;49.85;96752.09;10373710;28;20644;-72
2022/09/04 10:03:01;;;;;;;7.50;2.58;;;;;;;28.23;50.81;96773.09;10362400;28;20205;-72
2022/09/04 10:08:26;;;;;;;6.55;2.55;;;;;;;29.23;48.41;96753.84;10367139;28;20217;-72
2022/09/04 10:13:52;;;;;;;3.92;2.45;;;;;;;28.54;47.97;96721.88;10366147;28;20200;-72
2022/09/04 10:19:04;;;;;;;3.33;2.30;;;;;;;29.16;48.03;96737.94;10349361;28;20193;-73
2022/09/04 10:24:19;;;;;;;4.90;2.38;;;;;;;28.74;48.52;96731.84;10348646;28;20201;-72
2022/09/04 10:29:29;;;;;;;4.95;2.40;;;;;;;28.74;49.54;96758.00;10366482;28;20224;-72
2022/09/04 10:34:58;;;;;;;5.38;2.35;;;;;;;27.52;49.25;96731.50;10367161;28;20237;-72
2022/09/04 10:40:36;;;;;;;5.93;2.28;;;;;;;27.59;49.51;96744.69;10373981;28;20727;-72
2022/09/04 10:45:38;;;;;;;4.65;2.50;;;;;;;27.94;49.83;96765.47;10373398;28;20680;-72
2022/09/04 10:50:57;;;;;;;5.70;2.40;;;;;;;27.80;50.80;96774.34;10373543;28;20232;-72
2022/09/04 10:56:08;;;;;;;4.65;2.42;;;;;;;29.28;45.96;96724.13;10373591;28;20229;-71
2022/09/04 11:01:20;;;;;;;2.47;2.28;;;;;;;28.89;48.74;96770.66;10378225;28;20186;-71
2022/09/04 11:06:51;;;;;;;3.25;2.28;;;;;;;29.52;45.11;96713.50;10374696;28;20192;-72
2022/09/04 11:12:03;;;;;;;4.85;2.10;;;;;;;29.38;44.91;96717.91;10372356;28;20307;-72
2022/09/04 11:17:33;;;;;;;3.05;2.20;;;;;;;30.92;41.88;96708.56;10371119;28;20227;-72
2022/09/04 11:22:49;;;;;;;3.65;2.20;;;;;;;30.78;41.90;96697.63;10354522;28;20724;-71
2022/09/04 11:28:12;;;;;;;2.83;2.03;;;;;;;28.20;44.83;96681.25;10372305;28;20291;-72
2022/09/04 11:33:43;;;;;;;4.68;2.03;;;;;;;28.10;45.52;96708.97;10371998;28;20200;-72
2022/09/04 11:38:57;;;;;;;4.15;2.00;;;;;;;28.02;44.74;96694.16;10354289;28;20810;-72
2022/09/04 11:44:25;;;;;;;3.50;2.33;;;;;;;27.05;45.37;96684.75;10337489;28;20264;-72
2022/09/04 11:49:51;;;;;;;3.58;2.47;;;;;;;26.81;48.09;96745.41;10370647;28;20225;-70
2022/09/04 11:55:16;;;;;;;7.40;2.20;;;;;;;26.40;51.42;96806.88;10370350;28;20228;-73
2022/09/04 12:00:19;;;;;;;2.50;2.30;;;;;;;26.43;50.10;96785.72;10353066;28;20709;-72
2022/09/04 12:05:50;;;;;;;3.40;2.08;;;;;;;25.36;54.29;96852.44;10352629;28;20733;-73
2022/09/04 12:11:03;;;;;;;10.43;2.55;;;;;;;26.68;50.20;96801.22;10354520;28;20325;-72
2022/09/04 12:16:31;;;;;;;3.20;2.38;;;;;;;27.77;47.57;96789.94;10369357;28;20212;-73
2022/09/04 12:22:01;;;;;;;2.90;2.10;;;;;;;27.33;50.29;96828.00;10370182;28;20217;-73
2022/09/04 12:27:21;;;;;;;2.35;2.15;;;;;;;27.67;49.45;96821.41;10370119;28;20189;-73
2022/09/04 12:33:10;;;;;;;2.67;2.17;;;;;;;27.50;45.65;96740.91;10369114;28;20653;-72
2022/09/04 12:38:42;;;;;;;5.35;2.47;;;;;;;28.47;45.90;96777.97;10284016;28;20600;-72
2022/09/04 12:43:52;;;;;;;2.72;1.92;;;;;;;29.43;43.80;96753.75;10358419;28;20662;-72
2022/09/04 12:49:08;;;;;;;3.30;2.13;;;;;;;29.96;43.05;96749.72;10351333;28;20213;-72
2022/09/04 12:54:09;;;;;;;7.15;2.45;;;;;;;30.50;42.48;96759.56;10351233;28;20626;-73
2022/09/04 12:59:34;;;;;;;5.70;1.80;;;;;;;31.37;38.67;96681.28;10367833;28;20764;-72
2022/09/04 13:04:56;;;;;;;2.20;1.77;;;;;;;30.11;42.43;96738.81;10368170;28;20630;-72
2022/09/04 13:10:12;;;;;;;2.65;1.75;;;;;;;30.49;40.30;96695.81;10350623;28;20596;-73
2022/09/04 13:15:21;;;;;;;3.83;2.05;;;;;;;30.88;40.40;96716.47;10368106;28;20275;-70
2022/09/04 13:20:52;;;;;;;3.70;1.90;;;;;;;31.92;38.21;96688.91;10350164;28;20190;-73
2022/09/04 13:26:12;;;;;;;5.18;1.80;;;;;;;32.25;38.21;96719.53;10367912;28;20299;-72
2022/09/04 13:31:12;;;;;;;2.95;1.83;;;;;;;31.14;40.91;96735.16;10350299;28;20229;-73
2022/09/04 13:36:43;;;;;;;2.75;2.38;;;;;;;31.11;39.67;96706.75;10367460;28;20581;-72
2022/09/04 13:42:09;;;;;;;4.97;2.20;;;;;;;27.68;42.66;96664.25;10361915;28;20211;-72
2022/09/04 13:47:20;;;;;;;2.25;1.73;;;;;;;29.91;38.82;96655.19;10366721;28;20216;-71
2022/09/04 13:52:27;;;;;;;2.10;1.98;;;;;;;30.47;40.88;96729.59;10349667;28;20193;-72
2022/09/04 13:57:32;;;;;;;1.70;1.60;;;;;;;31.12;36.37;96634.53;10349562;28;20234;-72
2022/09/04 14:02:35;;;;;;;2.15;1.90;;;;;;;32.62;36.33;96698.84;10349277;28;20251;-72
2022/09/04 14:07:39;;;;;;;3.40;1.77;;;;;;;32.14;36.71;96691.78;10366781;28;20221;-72
2022/09/04 14:12:48;;;;;;;4.22;2.05;;;;;;;29.60;39.70;96656.19;10355329;28;20774;-72
2022/09/04 14:18:00;;;;;;;4.75;2.22;;;;;;;31.01;39.49;96703.38;10374903;28;20205;-72
2022/09/04 14:23:12;;;;;;;2.88;2.00;;;;;;;31.58;37.96;96707.00;10356871;28;20189;-72
2022/09/04 14:28:23;;;;;;;3.53;1.92;;;;;;;32.27;37.17;96706.50;10357007;28;20221;-73
2022/09/04 14:33:41;;;;;;;5.90;1.80;;;;;;;31.76;36.41;96643.09;10356161;28;20565;-72
2022/09/04 14:38:57;;;;;;;1.70;1.60;;;;;;;30.44;37.77;96636.34;10356618;28;20213;-72
2022/09/04 14:44:34;;;;;;;2.20;1.88;;;;;;;29.81;39.45;96683.09;10366405;28;20246;-72
2022/09/04 14:49:47;;;;;;;4.07;2.25;;;;;;;29.59;42.06;96750.97;10390961;28;20579;-72
2022/09/04 14:54:53;;;;;;;5.07;2.17;;;;;;;29.29;42.17;96729.25;10389791;28;20189;-72
2022/09/04 15:00:09;;;;;;;2.42;2.13;;;;;;;28.51;43.79;96765.53;10388859;28;20324;-73
2022/09/04 15:05:20;;;;;;;5.13;2.33;;;;;;;28.78;44.27;96799.53;10389081;28;20585;-72
2022/09/04 15:10:27;;;;;;;3.17;2.20;;;;;;;29.98;41.93;96785.34;10389644;28;20755;-72
2022/09/04 15:15:34;;;;;;;4.70;2.25;;;;;;;30.72;40.48;96774.53;10406416;28;20188;-72
2022/09/04 15:20:37;;;;;;;3.67;2.22;;;;;;;28.53;43.88;96771.50;10406494;28;20188;-72
2022/09/04 15:25:59;;;;;;;2.92;2.25;;;;;;;27.71;44.67;96780.25;10405841;28;20195;-72
2022/09/04 15:31:05;;;;;;;2.50;2.20;;;;;;;27.38;46.31;96808.38;10405737;28;20251;-72
2022/09/04 15:36:14;;;;;;;2.83;2.40;;;;;;;26.14;50.14;96863.03;10386382;28;20383;-72
2022/09/04 15:41:18;;;;;;;2.40;2.20;;;;;;;26.47;48.33;96840.53;10387423;28;20260;-72
2022/09/04 15:46:35;;;;;;;2.80;2.33;;;;;;;26.21;48.86;96844.84;10403747;28;20185;-72
2022/09/04 15:51:44;;;;;;;3.22;2.75;;;;;;;25.31;51.64;96880.00;10404060;28;20220;-72
2022/09/04 15:56:52;;;;;;;5.15;2.55;;;;;;;24.98;51.49;96875.44;10404045;28;20240;-72
2022/09/04 16:02:06;;;;;;;3.60;2.50;;;;;;;24.88;52.42;96893.00;10403578;28;20541;-72
2022/09/04 16:07:19;;;;;;;3.75;2.45;;;;;;;24.59;53.10;96910.19;10403107;28;20653;-72
2022/09/04 16:12:23;;;;;;;3.95;2.33;;;;;;;24.43;53.29;96912.56;10404849;28;20220;-72
2022/09/04 16:17:26;;;;;;;3.50;2.50;;;;;;;25.04;53.35;96926.22;10393614;28;20184;-72
2022/09/04 16:22:49;;;;;;;3.15;2.50;;;;;;;25.68;49.51;96862.50;10389420;28;20486;-71
2022/09/04 16:28:30;;;;;;;6.75;2.83;;;;;;;25.20;52.71;96926.47;10410801;28;20239;-72
2022/09/04 16:33:42;;;;;;;4.68;2.45;;;;;;;25.42;52.27;96913.13;10392423;28;20235;-71
2022/09/04 16:38:46;;;;;;;3.15;2.80;;;;;;;26.30;51.27;96915.84;10410804;28;20208;-72
2022/09/04 16:44:07;;;;;;;4.15;2.40;;;;;;;24.39;55.23;96954.28;10392682;28;20193;-72
2022/09/04 16:49:27;;;;;;;6.25;2.83;;;;;;;24.16;56.28;96969.34;10392230;28;20220;-72
2022/09/04 16:54:33;;;;;;;4.60;3.03;;;;;;;23.87;57.86;96997.94;10409629;28;20196;-72
2022/09/04 16:59:39;;;;;;;7.90;2.45;;;;;;;23.40;58.57;96998.75;10391426;28;20238;-72
2022/09/04 17:04:43;;;;;;;7.47;2.78;;;;;;;23.11;58.60;97003.94;10409182;28;20184;-71
2022/09/04 17:10:04;;;;;;;4.80;2.95;;;;;;;22.61;59.92;97014.88;10391627;28;20224;-72
2022/09/04 17:15:31;;;;;;;4.43;3.22;;;;;;;22.12;61.97;97043.38;10391664;28;20275;-72
2022/09/04 17:20:45;;;;;;;4.75;2.70;;;;;;;21.65;63.47;97059.84;10391552;28;20668;-72
2022/09/04 17:25:56;;;;;;;6.85;3.00;;;;;;;21.33;63.85;97060.69;10391310;28;20216;-72
2022/09/04 17:31:27;;;;;;;7.50;2.92;;;;;;;21.28;64.42;97076.47;10391327;28;20224;-72
2022/09/04 17:36:32;;;;;;;4.13;3.08;;;;;;;21.30;64.17;97071.78;10397973;28;20236;-72
2022/09/04 17:41:43;;;;;;;4.82;2.92;;;;;;;20.97;65.67;97085.31;10408117;28;20213;-71
2022/09/04 17:47:07;;;;;;;3.65;2.83;;;;;;;20.83;66.32;97101.34;10390698;28;20192;-72
2022/09/04 17:52:10;;;;;;;4.10;3.22;;;;;;;20.89;64.79;97083.72;10390414;28;20219;-71
2022/09/04 17:57:13;;;;;;;4.50;3.03;;;;;;;20.75;66.20;97095.44;10407701;28;20228;-72
2022/09/04 18:02:33;;;;;;;5.53;3.17;;;;;;;20.56;66.94;97092.63;10407584;28;20558;-72
2022/09/04 18:07:42;;;;;;;3.53;3.22;;;;;;;20.46;69.62;97132.19;10390127;28;20227;-71
2022/09/04 18:12:44;;;;;;;5.40;3.40;;;;;;;20.12;73.14;97158.84;10390045;28;20189;-72
2022/09/04 18:18:10;;;;;;;5.35;3.60;;;;;;;19.92;71.74;97121.66;10407995;28;20239;-71
2022/09/04 18:23:30;;;;;;;5.93;4.25;;;;;;;19.49;74.67;97163.69;10389701;28;20231;-72
2022/09/04 18:28:41;;;;;;;7.75;3.58;;;;;;;19.24;76.42;97165.06;10407097;28;20212;-71
2022/09/04 18:33:48;;;;;;;7.57;4.28;;;;;;;19.15;76.41;97160.16;10407052;28;20192;-72
2022/09/04 18:39:04;;;;;;;11.20;6.68;;;;;;;18.89;78.93;97167.81;10407249;28;20656;-72
2022/09/04 18:44:10;;;;;;;13.68;10.18;;;;;;;18.45;84.05;97182.28;10406644;28;20199;-71
2022/09/04 18:49:13;;;;;;;9.15;5.07;;;;;;;17.75;90.78;97190.09;10388865;28;20231;-71
2022/09/04 18:54:28;;;;;;;11.82;7.50;;;;;;;17.86;90.85;97190.59;10388466;28;20199;-71
2022/09/04 18:59:31;;;;;;;9.13;6.95;;;;;;;17.70;92.34;97189.81;10407756;28;20228;-71
2022/09/04 19:04:35;;;;;;;5.40;4.78;;;;;;;17.44;94.42;97195.69;10409639;28;20197;-71
2022/09/04 19:10:05;;;;;;;7.55;5.00;;;;;;;17.07;98.33;97197.53;10419167;28;20696;-71
2022/09/04 19:15:19;;;;;;;7.25;5.00;;;;;;;16.89;99.52;97192.63;10394661;28;20192;-71
2022/09/04 19:20:23;;;;;;;5.30;4.65;;;;;;;16.40;100.00;97200.09;10412020;28;20192;-71
2022/09/04 19:25:27;;;;;;;5.38;4.38;;;;;;;16.31;100.00;97198.53;10411731;28;20256;-71
2022/09/04 19:30:32;;;;;;;11.55;7.05;;;;;;;16.06;100.00;97208.50;10411678;28;20232;-71
2022/09/04 19:36:02;;;;;;;14.70;8.27;;;;;;;15.70;100.00;97219.69;10392842;28;20213;-71
2022/09/04 19:41:08;;;;;;;10.27;5.90;;;;;;;15.51;100.00;97218.31;10394202;28;20189;-71
2022/09/04 19:46:20;;;;;;;5.85;5.25;;;;;;;15.56;100.00;97220.41;10411045;28;20657;-71
2022/09/04 19:51:40;;;;;;;8.30;5.35;;;;;;;15.33;100.00;97227.34;10410727;28;20616;-71
2022/09/04 19:56:48;;;;;;;6.78;4.65;;;;;;;15.13;100.00;97220.84;10411277;28;20245;-72
2022/09/04 20:01:51;;;;;;;6.10;5.47;;;;;;;15.14;100.00;97222.50;10412297;28;20211;-72
2022/09/04 20:06:58;;;;;;;7.28;5.20;;;;;;;14.95;100.00;97221.91;10411302;28;20207;-72
2022/09/04 20:12:03;;;;;;;9.07;5.55;;;;;;;14.94;100.00;97227.34;10394684;28;20239;-71
2022/09/04 20:17:20;;;;;;;7.47;5.72;;;;;;;14.97;100.00;97230.47;10394050;28;20541;-71
2022/09/04 20:22:45;;;;;;;10.48;6.32;;;;;;;14.71;100.00;97227.28;10392058;28;20731;-72
2022/09/04 20:27:55;;;;;;;8.48;6.30;;;;;;;14.66;100.00;97234.88;10391092;28;20232;-72
2022/09/04 20:33:01;;;;;;;7.38;6.65;;;;;;;14.68;100.00;97232.91;10410859;28;20197;-72
2022/09/04 20:38:29;;;;;;;9.90;6.22;;;;;;;14.61;100.00;97241.50;10410549;28;20211;-72
2022/09/04 20:43:54;;;;;;;7.60;6.45;;;;;;;14.55;100.00;97241.31;10392696;28;20192;-72
2022/09/04 20:49:17;;;;;;;8.88;6.13;;;;;;;14.58;100.00;97243.63;10392691;28;20522;-72
2022/09/04 20:54:52;;;;;;;8.98;6.90;;;;;;;14.42;100.00;97255.00;10410130;28;20193;-72
2022/09/04 21:00:00;;;;;;;7.00;6.25;;;;;;;14.37;100.00;97252.88;10391716;28;20245;-72
2022/09/04 21:05:38;;;;;;;7.97;7.07;;;;;;;14.30;100.00;97256.34;10391089;28;20571;-72
2022/09/04 21:11:03;;;;;;;10.57;6.97;;;;;;;14.19;100.00;97250.41;10409948;28;20619;-72
2022/09/04 21:16:35;;;;;;;12.15;8.00;;;;;;;13.96;100.00;97250.25;10385070;28;20209;-72
2022/09/04 21:22:00;;;;;;;10.10;7.20;;;;;;;13.91;100.00;97261.28;10409032;28;20189;-72
2022/09/04 21:27:22;;;;;;;11.60;7.57;;;;;;;13.96;100.00;97259.97;10402276;28;20195;-72
2022/09/04 21:32:29;;;;;;;10.35;6.93;;;;;;;13.95;100.00;97263.59;10408372;28;20196;-72
2022/09/04 21:37:32;;;;;;;9.65;6.72;;;;;;;13.84;100.00;97264.75;10391224;28;20307;-71
2022/09/04 21:42:59;;;;;;;11.07;7.20;;;;;;;13.58;100.00;97268.31;10408117;28;20669;-71
2022/09/04 21:48:48;;;;;;;8.77;6.85;;;;;;;13.72;100.00;97269.50;10408564;28;20577;-71
2022/09/04 21:54:27;;;;;;;9.52;7.32;;;;;;;13.56;100.00;97278.19;10354310;28;20212;-71
2022/09/04 22:00:11;;;;;;;8.52;7.22;;;;;;;13.36;100.00;97275.03;10406998;28;20232;-71
2022/09/04 22:05:38;;;;;;;12.48;7.80;;;;;;;13.31;100.00;97285.19;10389949;28;20379;-72
2022/09/04 22:11:07;;;;;;;9.10;8.05;;;;;;;13.29;100.00;97282.72;10408385;28;20228;-71
2022/09/04 22:16:32;;;;;;;9.85;7.93;;;;;;;13.12;100.00;97279.16;10407290;28;20280;-72
2022/09/04 22:21:56;;;;;;;9.52;7.68;;;;;;;13.04;100.00;97289.66;10407520;28;20219;-71
2022/09/04 22:27:08;;;;;;;11.85;8.27;;;;;;;12.96;100.00;97287.81;10341970;28;20201;-71
2022/09/04 22:32:30;;;;;;;12.27;8.98;;;;;;;12.99;100.00;97284.06;10369442;28;20220;-71
2022/09/04 22:37:55;;;;;;;12.32;8.90;;;;;;;13.01;100.00;97285.53;10356853;28;20596;-71
2022/09/04 22:43:11;;;;;;;9.68;8.65;;;;;;;12.87;100.00;97285.31;10373761;28;20197;-71
2022/09/04 22:48:39;;;;;;;10.55;8.65;;;;;;;12.78;100.00;97280.00;10374744;28;20256;-71
2022/09/04 22:54:01;;;;;;;10.32;8.57;;;;;;;12.77;100.00;97288.88;10373704;28;20676;-72
2022/09/04 22:59:12;;;;;;;9.60;8.60;;;;;;;12.72;100.00;97283.25;10355643;28;20253;-72
2022/09/04 23:04:56;;;;;;;14.45;9.57;;;;;;;12.66;100.00;97283.88;10373010;28;20667;-72
2022/09/04 23:10:25;;;;;;;10.10;8.68;;;;;;;12.65;100.00;97283.06;10356332;28;20216;-72
2022/09/04 23:15:53;;;;;;;12.18;9.50;;;;;;;12.47;100.00;97275.22;10358940;28;20248;-73
2022/09/04 23:21:09;;;;;;;13.32;8.70;;;;;;;12.54;100.00;97275.44;10355315;28;20193;-72
2022/09/04 23:26:25;;;;;;;10.57;9.25;;;;;;;12.54;100.00;97274.59;10372229;28;20363;-72
2022/09/04 23:31:41;;;;;;;10.30;8.18;;;;;;;12.40;100.00;97278.63;10372493;28;20231;-72
2022/09/04 23:37:09;;;;;;;10.48;8.13;;;;;;;12.23;100.00;97277.69;10354948;28;20764;-72
2022/09/04 23:42:39;;;;;;;15.93;9.45;;;;;;;12.21;100.00;97272.59;10371531;28;20177;-72
2022/09/04 23:47:49;;;;;;;14.95;9.68;;;;;;;12.19;100.00;97281.59;10371439;28;20293;-72
2022/09/04 23:53:11;;;;;;;11.68;9.20;;;;;;;12.20;100.00;97280.63;10353702;28;20198;-72
